Aérodrome :
LOGIN :

S'inscrire | Disclaimer

   EN    FR    IT 

 










Légende :    VFR   VFR Marginal   IFR   IFR Intensif   IFR Très Intensif
Visi : 
Plafond : 
>= 8 km
>= 3000ft
5 à 8 km
1000 à 3000 ft
1500m à 5 km
500 à 1000 ft
800 à 1500m
200 à 500 ft
< 800m
< 200 ft
Symboles :   Orages  Brouillard  Fortes neiges  Fortes précipitations  Vent > 20 kt
SIGMETs :   Divers  Orages  Givrage  Turbulence  Onde Orograph.  Cendres Volcan.






- Altitude de l'aérodrome : 170 ft
- Code IATA : BGO


ENBR - Bergen , Flesland

DERNIER METAR :
  • 300250Z 00000KT CAVOK 09/06 Q1031 RMK WIND 1200FT 18005KT

METARs EXPIRÉS :
  • 300220Z 00000KT CAVOK 09/07 Q1030 RMK WIND 1200FT 18004KT
  • 300150Z 00000KT CAVOK 09/07 Q1030 RMK WIND 1200FT 15004KT
  • 300120Z VRB02KT CAVOK 09/07 Q1030 RMK WIND 1200FT 13003KT
  • 300050Z 18003KT CAVOK 09/07 Q1030 RMK WIND 1200FT 11003KT

TAF TAF ENBR
Valide du 30 à 00h jusqu'au 31 à 00h UTC


3000/3024 VRB05KT CAVOK
BECMG 3013/3015 34010KT
BECMG 3021/3023 VRB05KT



MET'MAP, la Météo Aéronautique d'un coup d'oeil ! - Copyright ORBIFLY Décembre 2007 - Disclaimer

ORBIFLY MET'MAP TEAM :

Programmation & Développement : Alexandra Zaïnal
Sur une idée originale de : Baudouin d'Aumeries
Assistance à la programmation : Marc-Olivier Méhu
Soutien technique & logistique : Manuel Goepfert

Contact : metmap@orbifly.com




SOURCES & CREDITS :

   NOAA